Hurricane, UT (84737)

12:14 PM MDT on June 21, 2018 (GMT -0600)
Ivy wood hurricane ut | | Change Station
Active Advisory: Fire Weather Warning

Elev 3310 ft 37.18 °N, 113.30 °W | Updated 4 seconds ago

Clear
Clear
96.1 °F
Feels Like 91 °F
N
4
Wind Variable Wind from ENE
Gusts 4.9 mph

Today
High -- | Low -- °F
--% Chance of Precip.
Yesterday
High -- | Low -- °F
Precip. -- in
Pressure 29.84 in
Visibility 10.0 miles
Clouds Clear
Heat Index 91 °F
Dew Point 31 °F
Humidity 10%
Rainfall 0.00 in
Snow Depth Not available.
6:13 AM 8:56 PM
Waxing Gibbous, 64% visible
METAR KSGU 211756Z AUTO 19003KT 10SM CLR 34/M02 A2996 RMK AO2 SLP104 T03391022 10339 20228 58013
Pressure 29.84 in
Visibility 10.0 miles
Clouds Clear
Heat Index 91 °F
Dew Point 31 °F
Humidity 10%
Rainfall 0.00 in
Snow Depth Not available.
6:13 AM 8:56 PM
Waxing Gibbous, 64% visible
METAR KSGU 211756Z AUTO 19003KT 10SM CLR 34/M02 A2996 RMK AO2 SLP104 T03391022 10339 20228 58013

Get Your Daily Forecast Email!

Thanks for signing up!

Be on the lookout for a verification email in your inbox.

You'll start receiving severe weather alerts in your inbox..

×

10-Day Weather Forecast

Almanac

Astronomy

Jun. 21, 2018 Rise Set
Actual Time
Civil Twilight
Nautical Twilight
Astronomical Twilight
Moon
Length of Visible Light
Length of Day
Tomorrow will be .
, % of the Moon is Illuminated

Today's Extremes

State Highs State Lows

Community

WunderPhotos

Category 6

Welcome to Category 6. This is the collective home for Weather Underground's featured writeups by Dr. Jeff Masters (right), Bob Henson (left), Chris Burt, and other regular contributors.

Nearby

Air Quality

  Air Quality AQ Index Pollutant
Not available.

Snow Depth

Station Depth Elevation

Earthquake Activity

City Distance Mag. Time & Date
Minimum magnitude displayed is 2.5.

Coastal Water Temperatures

Place Temperature

Stations

Nearby Weather Stations

Station Location Temp. Windchill Dew Point Humidity Wind Precip. Elev Updated Type
                   

Watches & Warnings

Fire Weather Warning
Issued: 3:27 AM MDT Jun. 21, 2018 – National Weather Service

... Red flag warning remains in effect from noon today to midnight
MDT tonight for wind and low relative humidity for fire weather
zones 495... 496... 497 and 498...

* affected area... fire weather zone 495 color Country West
desert... fire weather zone 496 color country mountains... fire
weather zone 497 Mojave Desert and fire weather zone 498 Grand
Staircase.

* Winds... southwest gusts around 30 mph.

* Relative humidity... 5 to 9 percent during the afternoon.

* Impacts... any fires that develop will have the potential to
spread rapidly. Outdoor burning is not recommended.

Precautionary/preparedness actions...

A red flag warning means that critical fire weather conditions
are either occurring now... or are imminent. A combination of
strong winds... low relative humidity... and warm temperatures can
contribute to extreme fire behavior.